sensor_id;sensor_type;location;lat;lon;timestamp;pressure;altitude;pressure_sealevel;temperature;humidity
55347;BME280;41218;55.700;38.270;2022-09-21T00:02:10;99802.66;;;6.13;64.92
55347;BME280;41218;55.700;38.270;2022-09-21T00:07:11;99797.94;;;6.01;64.41
55347;BME280;41218;55.700;38.270;2022-09-21T00:12:12;99804.81;;;6.07;64.76
55347;BME280;41218;55.700;38.270;2022-09-21T00:17:12;99800.81;;;6.05;64.48
55347;BME280;41218;55.700;38.270;2022-09-21T00:22:13;99801.47;;;6.01;65.04
55347;BME280;41218;55.700;38.270;2022-09-21T00:27:13;99801.00;;;5.99;64.62
55347;BME280;41218;55.700;38.270;2022-09-21T00:32:14;99795.09;;;5.89;64.46
55347;BME280;41218;55.700;38.270;2022-09-21T00:37:14;99798.44;;;5.94;64.57
55347;BME280;41218;55.700;38.270;2022-09-21T00:42:30;99805.63;;;5.87;64.85
55347;BME280;41218;55.700;38.270;2022-09-21T00:47:34;99800.13;;;5.87;64.68
55347;BME280;41218;55.700;38.270;2022-09-21T00:52:39;99808.91;;;5.80;64.82
55347;BME280;41218;55.700;38.270;2022-09-21T00:57:41;99797.13;;;5.79;64.66
55347;BME280;41218;55.700;38.270;2022-09-21T01:02:43;99804.88;;;5.77;64.66
55347;BME280;41218;55.700;38.270;2022-09-21T01:07:45;99800.69;;;5.80;64.98
55347;BME280;41218;55.700;38.270;2022-09-21T01:12:54;99800.41;;;5.73;64.93
55347;BME280;41218;55.700;38.270;2022-09-21T01:28:33;99805.84;;;5.60;65.04
55347;BME280;41218;55.700;38.270;2022-09-21T01:33:44;99804.56;;;5.58;64.77
55347;BME280;41218;55.700;38.270;2022-09-21T01:38:49;99811.50;;;5.55;64.84
55347;BME280;41218;55.700;38.270;2022-09-21T01:43:55;99814.59;;;5.54;65.04
55347;BME280;41218;55.700;38.270;2022-09-21T01:49:00;99810.94;;;5.50;64.79
55347;BME280;41218;55.700;38.270;2022-09-21T01:54:11;99804.50;;;5.46;65.03
55347;BME280;41218;55.700;38.270;2022-09-21T01:59:25;99795.69;;;5.40;65.41
55347;BME280;41218;55.700;38.270;2022-09-21T02:04:28;99807.09;;;5.42;64.98
55347;BME280;41218;55.700;38.270;2022-09-21T02:09:28;99804.91;;;5.35;64.95
55347;BME280;41218;55.700;38.270;2022-09-21T02:14:29;99807.97;;;5.34;65.18
55347;BME280;41218;55.700;38.270;2022-09-21T02:25:06;99809.03;;;5.20;65.49
55347;BME280;41218;55.700;38.270;2022-09-21T02:30:18;99821.06;;;5.28;65.18
55347;BME280;41218;55.700;38.270;2022-09-21T02:35:25;99810.28;;;5.23;65.33
55347;BME280;41218;55.700;38.270;2022-09-21T02:45:49;99812.22;;;5.22;65.54
55347;BME280;41218;55.700;38.270;2022-09-21T02:50:53;99805.34;;;5.16;65.60
55347;BME280;41218;55.700;38.270;2022-09-21T02:55:57;99809.56;;;5.14;66.11
55347;BME280;41218;55.700;38.270;2022-09-21T03:01:02;99808.41;;;5.15;66.30
55347;BME280;41218;55.700;38.270;2022-09-21T03:06:06;99808.88;;;5.17;66.34
55347;BME280;41218;55.700;38.270;2022-09-21T03:11:07;99809.69;;;5.17;66.27
55347;BME280;41218;55.700;38.270;2022-09-21T03:16:10;99799.06;;;5.16;66.81
55347;BME280;41218;55.700;38.270;2022-09-21T03:21:11;99809.69;;;5.17;66.62
55347;BME280;41218;55.700;38.270;2022-09-21T03:26:12;99796.31;;;5.16;67.10
55347;BME280;41218;55.700;38.270;2022-09-21T03:31:12;99803.53;;;5.20;67.60
55347;BME280;41218;55.700;38.270;2022-09-21T03:36:13;99805.16;;;5.21;67.26
55347;BME280;41218;55.700;38.270;2022-09-21T03:41:14;99808.38;;;5.24;67.42
55347;BME280;41218;55.700;38.270;2022-09-21T03:46:14;99806.09;;;5.26;67.76
55347;BME280;41218;55.700;38.270;2022-09-21T03:51:16;99816.84;;;5.31;68.12
55347;BME280;41218;55.700;38.270;2022-09-21T03:56:16;99810.03;;;5.37;68.29
55347;BME280;41218;55.700;38.270;2022-09-21T04:01:17;99806.31;;;5.41;68.17
55347;BME280;41218;55.700;38.270;2022-09-21T04:06:17;99816.28;;;5.46;68.50
55347;BME280;41218;55.700;38.270;2022-09-21T04:11:18;99806.91;;;5.47;68.49
55347;BME280;41218;55.700;38.270;2022-09-21T04:16:25;99810.72;;;5.55;68.94
55347;BME280;41218;55.700;38.270;2022-09-21T04:21:26;99806.31;;;5.62;68.97
55347;BME280;41218;55.700;38.270;2022-09-21T04:26:29;99808.16;;;5.71;69.67
55347;BME280;41218;55.700;38.270;2022-09-21T04:31:30;99813.56;;;5.79;69.84
55347;BME280;41218;55.700;38.270;2022-09-21T04:36:31;99808.34;;;5.87;69.79
55347;BME280;41218;55.700;38.270;2022-09-21T04:41:31;99829.16;;;6.09;70.37
55347;BME280;41218;55.700;38.270;2022-09-21T04:46:32;99824.78;;;6.29;71.01
55347;BME280;41218;55.700;38.270;2022-09-21T04:51:33;99819.88;;;6.47;71.62
55347;BME280;41218;55.700;38.270;2022-09-21T04:56:34;99822.75;;;6.62;71.34
55347;BME280;41218;55.700;38.270;2022-09-21T05:01:34;99816.72;;;6.81;71.97
55347;BME280;41218;55.700;38.270;2022-09-21T05:06:35;99825.66;;;7.03;71.83
55347;BME280;41218;55.700;38.270;2022-09-21T05:11:35;99817.50;;;7.19;72.40
55347;BME280;41218;55.700;38.270;2022-09-21T05:16:36;99818.81;;;7.50;72.71
55347;BME280;41218;55.700;38.270;2022-09-21T05:21:36;99823.91;;;7.76;72.76
55347;BME280;41218;55.700;38.270;2022-09-21T05:26:37;99824.97;;;7.99;72.48
55347;BME280;41218;55.700;38.270;2022-09-21T05:31:46;99816.84;;;8.19;73.90
55347;BME280;41218;55.700;38.270;2022-09-21T05:37:00;99809.50;;;8.39;74.41
55347;BME280;41218;55.700;38.270;2022-09-21T05:42:02;99820.31;;;8.60;73.39
55347;BME280;41218;55.700;38.270;2022-09-21T05:47:05;99823.53;;;8.78;73.28
55347;BME280;41218;55.700;38.270;2022-09-21T06:08:01;99818.81;;;9.30;74.38
55347;BME280;41218;55.700;38.270;2022-09-21T06:13:02;99813.50;;;9.37;73.24
55347;BME280;41218;55.700;38.270;2022-09-21T06:18:03;99797.50;;;9.46;73.67
55347;BME280;41218;55.700;38.270;2022-09-21T06:23:07;99812.78;;;9.59;73.81
55347;BME280;41218;55.700;38.270;2022-09-21T06:28:11;99816.63;;;9.74;73.73
55347;BME280;41218;55.700;38.270;2022-09-21T06:33:12;99816.94;;;9.89;73.58
55347;BME280;41218;55.700;38.270;2022-09-21T06:38:13;99820.50;;;10.09;74.57
55347;BME280;41218;55.700;38.270;2022-09-21T06:43:13;99823.94;;;10.25;73.19
55347;BME280;41218;55.700;38.270;2022-09-21T06:48:14;99822.69;;;10.42;73.70
55347;BME280;41218;55.700;38.270;2022-09-21T06:53:15;99817.81;;;10.55;73.52
55347;BME280;41218;55.700;38.270;2022-09-21T06:58:17;99818.50;;;10.71;73.36
55347;BME280;41218;55.700;38.270;2022-09-21T07:03:18;99834.97;;;10.87;73.30
55347;BME280;41218;55.700;38.270;2022-09-21T07:08:18;99837.59;;;11.03;73.14
55347;BME280;41218;55.700;38.270;2022-09-21T07:13:19;99833.38;;;11.13;72.85
55347;BME280;41218;55.700;38.270;2022-09-21T07:18:20;99837.41;;;11.19;72.63
55347;BME280;41218;55.700;38.270;2022-09-21T07:23:21;99829.97;;;11.23;72.51
55347;BME280;41218;55.700;38.270;2022-09-21T07:28:22;99833.59;;;11.27;72.54
55347;BME280;41218;55.700;38.270;2022-09-21T07:33:24;99839.97;;;11.31;72.35
55347;BME280;41218;55.700;38.270;2022-09-21T07:38:24;99837.31;;;11.38;72.56
55347;BME280;41218;55.700;38.270;2022-09-21T07:43:25;99832.63;;;11.42;72.29
55347;BME280;41218;55.700;38.270;2022-09-21T07:48:27;99832.34;;;11.51;72.16
55347;BME280;41218;55.700;38.270;2022-09-21T07:53:28;99840.44;;;11.63;71.97
55347;BME280;41218;55.700;38.270;2022-09-21T07:58:29;99817.72;;;11.51;71.87
55347;BME280;41218;55.700;38.270;2022-09-21T08:03:52;99836.13;;;11.66;71.77
55347;BME280;41218;55.700;38.270;2022-09-21T08:08:53;99841.50;;;11.82;71.65
55347;BME280;41218;55.700;38.270;2022-09-21T08:13:59;99827.50;;;12.01;71.69
55347;BME280;41218;55.700;38.270;2022-09-21T08:19:00;99828.16;;;12.25;71.42
55347;BME280;41218;55.700;38.270;2022-09-21T08:24:02;99818.09;;;12.47;71.00
55347;BME280;41218;55.700;38.270;2022-09-21T08:29:02;99821.00;;;12.61;70.65
55347;BME280;41218;55.700;38.270;2022-09-21T08:34:03;99818.31;;;12.72;70.45
55347;BME280;41218;55.700;38.270;2022-09-21T08:39:07;99820.34;;;12.79;70.14
55347;BME280;41218;55.700;38.270;2022-09-21T08:44:18;99816.50;;;12.91;69.77
55347;BME280;41218;55.700;38.270;2022-09-21T08:49:24;99791.59;;;12.98;69.40
55347;BME280;41218;55.700;38.270;2022-09-21T08:54:33;99785.63;;;12.99;69.31
55347;BME280;41218;55.700;38.270;2022-09-21T08:59:34;99793.69;;;13.15;69.45
55347;BME280;41218;55.700;38.270;2022-09-21T09:20:20;99788.75;;;13.50;66.88
55347;BME280;41218;55.700;38.270;2022-09-21T09:25:23;99785.22;;;13.56;67.12
55347;BME280;41218;55.700;38.270;2022-09-21T09:30:26;99783.31;;;13.71;66.58
55347;BME280;41218;55.700;38.270;2022-09-21T09:41:08;99767.13;;;13.91;65.97
55347;BME280;41218;55.700;38.270;2022-09-21T09:51:31;99771.94;;;14.05;65.71
55347;BME280;41218;55.700;38.270;2022-09-21T09:56:34;99768.75;;;14.07;65.48
55347;BME280;41218;55.700;38.270;2022-09-21T10:01:45;99774.34;;;14.17;64.93
55347;BME280;41218;55.700;38.270;2022-09-21T10:06:46;99770.38;;;14.18;65.12
55347;BME280;41218;55.700;38.270;2022-09-21T10:11:47;99765.22;;;14.28;64.71
55347;BME280;41218;55.700;38.270;2022-09-21T10:16:49;99768.00;;;14.35;64.10
55347;BME280;41218;55.700;38.270;2022-09-21T10:22:01;99763.25;;;14.39;63.44
55347;BME280;41218;55.700;38.270;2022-09-21T10:27:12;99767.59;;;14.43;62.70
55347;BME280;41218;55.700;38.270;2022-09-21T10:37:27;99761.28;;;14.47;62.77
55347;BME280;41218;55.700;38.270;2022-09-21T10:42:41;99763.28;;;14.50;62.45
55347;BME280;41218;55.700;38.270;2022-09-21T10:47:47;99751.72;;;14.51;62.75
55347;BME280;41218;55.700;38.270;2022-09-21T10:52:49;99756.50;;;14.54;62.72
55347;BME280;41218;55.700;38.270;2022-09-21T10:57:51;99734.25;;;14.54;62.40
55347;BME280;41218;55.700;38.270;2022-09-21T11:02:52;99737.03;;;14.51;62.28
55347;BME280;41218;55.700;38.270;2022-09-21T11:08:05;99743.41;;;14.55;61.77
55347;BME280;41218;55.700;38.270;2022-09-21T11:20:02;99750.16;;;14.54;61.83
55347;BME280;41218;55.700;38.270;2022-09-21T11:30:14;99748.94;;;14.51;61.90
55347;BME280;41218;55.700;38.270;2022-09-21T11:35:38;99738.63;;;14.52;61.73
55347;BME280;41218;55.700;38.270;2022-09-21T11:46:26;99739.03;;;14.50;61.76
55347;BME280;41218;55.700;38.270;2022-09-21T12:02:35;99735.44;;;14.42;61.86
55347;BME280;41218;55.700;38.270;2022-09-21T12:08:05;99733.06;;;14.45;61.66
55347;BME280;41218;55.700;38.270;2022-09-21T12:23:56;99721.94;;;14.41;61.64
55347;BME280;41218;55.700;38.270;2022-09-21T12:29:01;99710.41;;;14.42;61.98
55347;BME280;41218;55.700;38.270;2022-09-21T12:34:17;99712.41;;;14.46;61.39
55347;BME280;41218;55.700;38.270;2022-09-21T12:39:27;99707.66;;;14.46;61.57
55347;BME280;41218;55.700;38.270;2022-09-21T12:44:43;99708.44;;;14.47;61.48
55347;BME280;41218;55.700;38.270;2022-09-21T12:50:00;99715.59;;;14.48;61.52
55347;BME280;41218;55.700;38.270;2022-09-21T13:00:23;99721.53;;;14.42;61.52
55347;BME280;41218;55.700;38.270;2022-09-21T13:15:32;99693.72;;;14.39;61.07
55347;BME280;41218;55.700;38.270;2022-09-21T13:20:40;99704.06;;;14.38;61.57
55347;BME280;41218;55.700;38.270;2022-09-21T13:26:04;99702.06;;;14.35;61.17
55347;BME280;41218;55.700;38.270;2022-09-21T13:36:33;99707.22;;;14.37;61.45
55347;BME280;41218;55.700;38.270;2022-09-21T13:41:35;99709.63;;;14.38;61.46
55347;BME280;41218;55.700;38.270;2022-09-21T13:52:01;99694.13;;;14.37;61.64
55347;BME280;41218;55.700;38.270;2022-09-21T14:07:32;99687.00;;;14.26;61.91
55347;BME280;41218;55.700;38.270;2022-09-21T14:12:39;99687.75;;;14.22;62.03
55347;BME280;41218;55.700;38.270;2022-09-21T14:17:42;99685.41;;;14.17;62.11
55347;BME280;41218;55.700;38.270;2022-09-21T14:22:43;99691.75;;;14.18;62.30
55347;BME280;41218;55.700;38.270;2022-09-21T14:27:44;99697.31;;;14.18;62.39
55347;BME280;41218;55.700;38.270;2022-09-21T14:32:47;99694.13;;;14.16;62.41
55347;BME280;41218;55.700;38.270;2022-09-21T14:38:00;99690.94;;;14.10;62.64
55347;BME280;41218;55.700;38.270;2022-09-21T14:43:01;99690.97;;;14.17;62.49
55347;BME280;41218;55.700;38.270;2022-09-21T15:10:17;99690.50;;;13.87;63.27
55347;BME280;41218;55.700;38.270;2022-09-21T15:15:39;99706.75;;;13.85;63.38
55347;BME280;41218;55.700;38.270;2022-09-21T15:20:43;99704.00;;;13.81;63.21
55347;BME280;41218;55.700;38.270;2022-09-21T15:25:53;99705.56;;;13.75;63.95
55347;BME280;41218;55.700;38.270;2022-09-21T15:30:57;99711.50;;;13.73;63.77
55347;BME280;41218;55.700;38.270;2022-09-21T15:36:00;99721.41;;;13.71;64.28
55347;BME280;41218;55.700;38.270;2022-09-21T15:41:02;99724.19;;;13.67;63.99
55347;BME280;41218;55.700;38.270;2022-09-21T15:46:04;99729.34;;;13.65;64.28
55347;BME280;41218;55.700;38.270;2022-09-21T15:51:30;99736.88;;;13.65;64.50
55347;BME280;41218;55.700;38.270;2022-09-21T15:56:42;99721.34;;;13.56;64.46
55347;BME280;41218;55.700;38.270;2022-09-21T16:01:46;99734.81;;;13.54;64.74
55347;BME280;41218;55.700;38.270;2022-09-21T16:07:32;99748.31;;;13.52;65.66
55347;BME280;41218;55.700;38.270;2022-09-21T16:17:52;99759.78;;;13.43;65.53
55347;BME280;41218;55.700;38.270;2022-09-21T16:23:05;99774.44;;;13.40;65.61
55347;BME280;41218;55.700;38.270;2022-09-21T16:33:40;99786.72;;;13.39;65.98
55347;BME280;41218;55.700;38.270;2022-09-21T16:38:42;99772.31;;;13.23;65.51
55347;BME280;41218;55.700;38.270;2022-09-21T16:43:43;99763.53;;;13.10;65.88
55347;BME280;41218;55.700;38.270;2022-09-21T16:48:44;99770.22;;;13.06;66.06
55347;BME280;41218;55.700;38.270;2022-09-21T16:53:44;99765.47;;;13.02;66.14
55347;BME280;41218;55.700;38.270;2022-09-21T16:58:45;99767.03;;;13.03;66.18
55347;BME280;41218;55.700;38.270;2022-09-21T17:03:46;99768.59;;;12.97;66.38
55347;BME280;41218;55.700;38.270;2022-09-21T17:08:48;99768.16;;;12.92;66.01
55347;BME280;41218;55.700;38.270;2022-09-21T17:13:49;99775.22;;;12.82;66.65
55347;BME280;41218;55.700;38.270;2022-09-21T17:18:50;99774.31;;;12.71;66.80
55347;BME280;41218;55.700;38.270;2022-09-21T17:23:50;99797.75;;;12.73;67.10
55347;BME280;41218;55.700;38.270;2022-09-21T17:28:51;99786.63;;;12.70;67.20
55347;BME280;41218;55.700;38.270;2022-09-21T17:33:53;99790.97;;;12.71;67.12
55347;BME280;41218;55.700;38.270;2022-09-21T17:38:53;99779.78;;;12.60;67.22
55347;BME280;41218;55.700;38.270;2022-09-21T17:48:59;99787.63;;;12.51;67.90
55347;BME280;41218;55.700;38.270;2022-09-21T17:54:00;99788.34;;;12.44;67.83
55347;BME280;41218;55.700;38.270;2022-09-21T17:59:03;99787.53;;;12.40;68.16
55347;BME280;41218;55.700;38.270;2022-09-21T18:04:05;99787.91;;;12.38;68.32
55347;BME280;41218;55.700;38.270;2022-09-21T18:09:08;99785.53;;;12.37;68.26
55347;BME280;41218;55.700;38.270;2022-09-21T18:14:28;99781.56;;;12.38;68.61
55347;BME280;41218;55.700;38.270;2022-09-21T18:24:42;99786.66;;;12.32;68.22
55347;BME280;41218;55.700;38.270;2022-09-21T18:29:43;99777.13;;;12.30;68.77
55347;BME280;41218;55.700;38.270;2022-09-21T18:40:33;99777.09;;;12.26;69.15
55347;BME280;41218;55.700;38.270;2022-09-21T18:55:47;99792.09;;;12.21;68.70
55347;BME280;41218;55.700;38.270;2022-09-21T19:00:48;99804.38;;;12.24;68.69
55347;BME280;41218;55.700;38.270;2022-09-21T19:16:44;99794.34;;;12.09;69.20
55347;BME280;41218;55.700;38.270;2022-09-21T19:21:59;99788.34;;;12.03;69.28
55347;BME280;41218;55.700;38.270;2022-09-21T19:32:17;99786.63;;;11.91;69.37
55347;BME280;41218;55.700;38.270;2022-09-21T19:37:22;99778.94;;;11.81;69.16
55347;BME280;41218;55.700;38.270;2022-09-21T19:42:31;99776.91;;;11.74;69.70
55347;BME280;41218;55.700;38.270;2022-09-21T19:47:43;99784.38;;;11.70;69.53
55347;BME280;41218;55.700;38.270;2022-09-21T19:52:49;99791.84;;;11.66;69.67
55347;BME280;41218;55.700;38.270;2022-09-21T19:57:51;99779.09;;;11.61;69.75
55347;BME280;41218;55.700;38.270;2022-09-21T20:03:33;99792.56;;;11.63;70.16
55347;BME280;41218;55.700;38.270;2022-09-21T20:19:46;99780.16;;;11.50;70.76
55347;BME280;41218;55.700;38.270;2022-09-21T20:25:05;99791.22;;;11.50;70.70
55347;BME280;41218;55.700;38.270;2022-09-21T20:30:11;99779.75;;;11.48;70.34
55347;BME280;41218;55.700;38.270;2022-09-21T20:35:24;99778.50;;;11.45;70.99
55347;BME280;41218;55.700;38.270;2022-09-21T20:40:26;99776.13;;;11.43;70.73
55347;BME280;41218;55.700;38.270;2022-09-21T20:45:28;99775.00;;;11.48;70.62
55347;BME280;41218;55.700;38.270;2022-09-21T20:50:30;99774.56;;;11.46;70.79
55347;BME280;41218;55.700;38.270;2022-09-21T20:55:31;99766.22;;;11.42;70.80
55347;BME280;41218;55.700;38.270;2022-09-21T21:00:31;99772.50;;;11.39;71.14
55347;BME280;41218;55.700;38.270;2022-09-21T21:05:33;99760.16;;;11.33;71.12
55347;BME280;41218;55.700;38.270;2022-09-21T21:10:34;99753.81;;;11.33;71.08
55347;BME280;41218;55.700;38.270;2022-09-21T21:15:35;99760.56;;;11.35;71.25
55347;BME280;41218;55.700;38.270;2022-09-21T21:20:36;99758.19;;;11.34;71.58
55347;BME280;41218;55.700;38.270;2022-09-21T21:25:36;99759.53;;;11.43;71.36
55347;BME280;41218;55.700;38.270;2022-09-21T21:30:37;99761.44;;;11.39;71.25
55347;BME280;41218;55.700;38.270;2022-09-21T21:35:37;99753.75;;;11.26;71.42
55347;BME280;41218;55.700;38.270;2022-09-21T21:40:38;99767.66;;;11.33;71.32
55347;BME280;41218;55.700;38.270;2022-09-21T21:45:39;99772.41;;;11.32;71.58
55347;BME280;41218;55.700;38.270;2022-09-21T21:50:39;99768.84;;;11.32;71.72
55347;BME280;41218;55.700;38.270;2022-09-21T21:55:40;99763.72;;;11.34;71.73
55347;BME280;41218;55.700;38.270;2022-09-21T22:00:40;99771.28;;;11.37;71.69
55347;BME280;41218;55.700;38.270;2022-09-21T22:05:41;99784.78;;;11.42;71.56
55347;BME280;41218;55.700;38.270;2022-09-21T22:10:48;99778.47;;;11.41;71.84
55347;BME280;41218;55.700;38.270;2022-09-21T22:15:49;99780.81;;;11.39;71.78
55347;BME280;41218;55.700;38.270;2022-09-21T22:20:50;99772.41;;;11.32;71.98
55347;BME280;41218;55.700;38.270;2022-09-21T22:25:51;99775.53;;;11.31;71.72
55347;BME280;41218;55.700;38.270;2022-09-21T22:30:51;99775.53;;;11.31;72.23
55347;BME280;41218;55.700;38.270;2022-09-21T22:35:52;99784.22;;;11.29;72.20
55347;BME280;41218;55.700;38.270;2022-09-21T22:40:53;99791.78;;;11.32;72.12
55347;BME280;41218;55.700;38.270;2022-09-21T22:45:53;99782.28;;;11.33;72.29
55347;BME280;41218;55.700;38.270;2022-09-21T22:50:54;99784.63;;;11.31;72.34
55347;BME280;41218;55.700;38.270;2022-09-21T22:56:19;99781.00;;;11.27;72.56
55347;BME280;41218;55.700;38.270;2022-09-21T23:01:28;99782.63;;;11.28;72.73
55347;BME280;41218;55.700;38.270;2022-09-21T23:06:31;99783.84;;;11.31;72.26
55347;BME280;41218;55.700;38.270;2022-09-21T23:11:38;99775.47;;;11.27;72.60
55347;BME280;41218;55.700;38.270;2022-09-21T23:16:38;99774.31;;;11.28;72.41
55347;BME280;41218;55.700;38.270;2022-09-21T23:21:40;99779.44;;;11.26;72.33
55347;BME280;41218;55.700;38.270;2022-09-21T23:26:41;99774.28;;;11.25;72.71
55347;BME280;41218;55.700;38.270;2022-09-21T23:31:42;99764.38;;;11.23;72.49
55347;BME280;41218;55.700;38.270;2022-09-21T23:36:43;99775.06;;;11.25;72.45
55347;BME280;41218;55.700;38.270;2022-09-21T23:41:44;99770.66;;;11.20;72.37
55347;BME280;41218;55.700;38.270;2022-09-21T23:46:45;99771.44;;;11.21;72.53
55347;BME280;41218;55.700;38.270;2022-09-21T23:51:45;99761.56;;;11.20;72.60
55347;BME280;41218;55.700;38.270;2022-09-21T23:56:46;99765.13;;;11.20;72.48
